Time;durP1;ratioP1;P1;durP2;ratioP2;P2;SDS_P1;SDS_P2;PMS_P1;PMS_P2;Temp;Humidity;BMP_temperature;BMP_pressure;BME280_temperature;BME280_humidity;BME280_pressure;Samples;Min_cycle;Max_cycle;Signal;HPM_P1;HPM_P2
2023/07/30 00:02:17;;;;;;;4.28;2.67;;;;;;;18.23;100.00;98892.63;5072515;28;20388;-85
2023/07/30 00:04:42;;;;;;;3.17;2.80;;;;;;;18.30;100.00;98906.09;5072151;28;20041;-86
2023/07/30 00:07:08;;;;;;;3.70;2.60;;;;;;;18.33;100.00;98908.44;5072373;28;20028;-85
2023/07/30 00:09:34;;;;;;;3.90;2.33;;;;;;;18.08;100.00;98872.94;5072029;28;20150;-85
2023/07/30 00:11:59;;;;;;;3.45;2.45;;;;;;;18.17;100.00;98893.19;5072174;28;20028;-85
2023/07/30 00:14:24;;;;;;;5.07;2.67;;;;;;;18.04;100.00;98877.66;5072294;28;20028;-85
2023/07/30 00:16:50;;;;;;;2.65;2.45;;;;;;;17.93;100.00;98860.16;5071991;28;20071;-85
2023/07/30 00:19:15;;;;;;;4.60;2.72;;;;;;;18.20;100.00;98911.34;5072272;28;20502;-85
2023/07/30 00:21:43;;;;;;;5.00;2.50;;;;;;;18.14;100.00;98912.75;5073608;28;20051;-85
2023/07/30 00:24:08;;;;;;;4.80;3.08;;;;;;;18.13;100.00;98910.25;5074633;28;20480;-85
2023/07/30 00:26:34;;;;;;;2.92;2.58;;;;;;;18.05;100.00;98907.47;5074154;28;20037;-85
2023/07/30 00:28:59;;;;;;;4.72;2.70;;;;;;;17.96;100.00;98895.94;5074600;28;20115;-85
2023/07/30 00:31:24;;;;;;;2.60;2.40;;;;;;;17.93;100.00;98893.56;5073158;28;20052;-85
2023/07/30 00:33:50;;;;;;;3.33;2.75;;;;;;;17.87;100.00;98888.88;5074227;28;20020;-85
2023/07/30 00:36:15;;;;;;;3.25;2.90;;;;;;;17.98;100.00;98916.88;5074646;28;20411;-85
2023/07/30 00:38:40;;;;;;;2.88;2.60;;;;;;;17.82;100.00;98899.78;5073067;28;20028;-85
2023/07/30 00:41:06;;;;;;;5.82;2.88;;;;;;;17.92;100.00;98918.25;5074180;28;20032;-85
2023/07/30 00:43:31;;;;;;;2.72;2.42;;;;;;;17.87;100.00;98913.41;5072518;28;20446;-85
2023/07/30 00:45:56;;;;;;;4.45;2.90;;;;;;;17.80;100.00;98912.28;5074337;28;20589;-85
2023/07/30 00:48:22;;;;;;;3.75;2.80;;;;;;;17.81;100.00;98927.09;5074192;28;20398;-85
2023/07/30 00:50:47;;;;;;;3.97;3.15;;;;;;;17.65;100.00;98917.03;5074016;28;20032;-85
2023/07/30 00:53:15;;;;;;;4.10;3.35;;;;;;;17.70;100.00;98925.41;5074299;28;20028;-85
2023/07/30 00:55:40;;;;;;;4.03;3.20;;;;;;;17.73;100.00;98931.34;5073864;28;20029;-85
2023/07/30 00:58:06;;;;;;;4.32;2.75;;;;;;;17.74;100.00;98936.53;5074156;28;20031;-85
2023/07/30 01:00:32;;;;;;;5.07;3.10;;;;;;;17.62;100.00;98925.22;5073601;28;20074;-85
2023/07/30 01:02:57;;;;;;;4.43;3.00;;;;;;;17.71;100.00;98939.38;5073803;28;20114;-85
2023/07/30 01:05:23;;;;;;;3.88;3.33;;;;;;;17.72;100.00;98943.69;5072551;28;20021;-85
2023/07/30 01:07:48;;;;;;;4.20;3.08;;;;;;;17.73;100.00;98947.97;5073439;28;20464;-85
2023/07/30 01:10:15;;;;;;;4.32;4.00;;;;;;;17.59;100.00;98914.13;5073533;28;20035;-85
2023/07/30 01:12:42;;;;;;;3.78;3.35;;;;;;;17.64;100.00;98925.91;5073660;28;20020;-85
2023/07/30 01:15:09;;;;;;;3.85;2.92;;;;;;;17.68;100.00;98932.59;5073543;28;20056;-85
2023/07/30 01:17:35;;;;;;;4.40;3.47;;;;;;;17.66;100.00;98934.53;5073655;28;20069;-85
2023/07/30 01:20:01;;;;;;;5.00;3.80;;;;;;;17.62;100.00;98927.03;5073429;28;20024;-85
2023/07/30 01:22:26;;;;;;;4.53;4.00;;;;;;;17.61;100.00;98941.16;5073300;28;20167;-85
2023/07/30 01:24:52;;;;;;;4.68;3.38;;;;;;;17.43;100.00;98919.88;5072885;28;20021;-85
2023/07/30 01:27:26;;;;;;;4.25;3.85;;;;;;;17.52;100.00;98945.41;5072227;28;20032;-85
2023/07/30 01:29:55;;;;;;;4.32;3.40;;;;;;;17.46;100.00;98940.69;5073216;28;20024;-85
2023/07/30 01:32:26;;;;;;;3.35;3.05;;;;;;;17.56;100.00;98961.78;5073651;28;20025;-85
2023/07/30 01:34:54;;;;;;;5.53;3.13;;;;;;;17.38;100.00;98943.97;5073075;28;20059;-85
2023/07/30 01:37:20;;;;;;;4.03;3.40;;;;;;;17.38;100.00;98948.41;5072971;28;20039;-85
2023/07/30 01:39:47;;;;;;;5.60;3.70;;;;;;;17.42;100.00;98966.44;5072979;28;20100;-85
2023/07/30 01:42:13;;;;;;;5.15;3.30;;;;;;;17.48;100.00;98966.88;5071462;28;20031;-85
2023/07/30 01:44:38;;;;;;;6.35;3.60;;;;;;;17.32;100.00;98946.28;5073111;28;20103;-85
2023/07/30 01:47:03;;;;;;;3.92;3.50;;;;;;;17.35;100.00;98964.44;5072994;28;20052;-84
2023/07/30 01:49:29;;;;;;;4.45;3.85;;;;;;;17.30;100.00;98951.69;5072735;28;20381;-85
2023/07/30 01:51:54;;;;;;;6.82;4.10;;;;;;;17.21;100.00;98941.94;5072623;28;20439;-85
2023/07/30 01:54:19;;;;;;;7.32;4.20;;;;;;;17.12;100.00;98940.13;5072917;28;20444;-85
2023/07/30 01:56:45;;;;;;;4.72;4.28;;;;;;;17.20;100.00;98959.53;5072612;28;20353;-85
2023/07/30 01:59:10;;;;;;;6.22;4.40;;;;;;;17.23;100.00;98962.88;5072656;28;20099;-85
2023/07/30 02:01:35;;;;;;;4.32;3.45;;;;;;;17.03;100.00;98933.84;5072642;28;20431;-85
2023/07/30 02:04:00;;;;;;;5.07;4.07;;;;;;;17.17;100.00;98965.06;5072882;28;20472;-85
2023/07/30 02:06:26;;;;;;;5.22;3.72;;;;;;;17.08;100.00;98947.44;5072412;28;20027;-85
2023/07/30 02:08:51;;;;;;;3.83;3.50;;;;;;;17.00;100.00;98944.59;5072511;28;20032;-85
2023/07/30 02:11:16;;;;;;;3.95;3.58;;;;;;;16.99;100.00;98948.22;5072743;28;20020;-84
2023/07/30 02:13:42;;;;;;;3.92;3.53;;;;;;;17.03;100.00;98952.25;5071036;28;20021;-85
2023/07/30 02:16:07;;;;;;;5.07;4.30;;;;;;;16.84;100.00;98931.06;5071141;28;20029;-85
2023/07/30 02:18:33;;;;;;;4.72;3.15;;;;;;;17.01;100.00;98962.06;5072392;28;20025;-85
2023/07/30 02:20:58;;;;;;;3.97;3.00;;;;;;;16.88;100.00;98957.00;5072306;28;20029;-85
2023/07/30 02:23:23;;;;;;;3.78;3.30;;;;;;;16.76;100.00;98947.47;5072391;28;20115;-85
2023/07/30 02:25:49;;;;;;;5.70;3.17;;;;;;;16.78;100.00;98956.09;5072145;28;20051;-85
2023/07/30 02:28:14;;;;;;;4.50;3.97;;;;;;;16.82;100.00;98959.31;5072322;28;20028;-85
2023/07/30 02:30:39;;;;;;;3.50;3.20;;;;;;;16.69;100.00;98939.25;5071948;28;20464;-85
2023/07/30 02:33:05;;;;;;;4.88;3.05;;;;;;;16.68;100.00;98939.38;5072202;28;20020;-84
2023/07/30 02:35:30;;;;;;;4.50;3.22;;;;;;;16.75;100.00;98958.16;5072060;28;20052;-85
2023/07/30 02:37:55;;;;;;;4.78;3.15;;;;;;;16.59;100.00;98930.44;5071666;28;20099;-85
2023/07/30 02:40:21;;;;;;;4.00;2.92;;;;;;;16.63;100.00;98947.63;5072098;28;20033;-85
2023/07/30 02:42:46;;;;;;;3.25;2.95;;;;;;;16.60;100.00;98939.16;5071728;28;20515;-85
2023/07/30 02:45:11;;;;;;;5.20;3.00;;;;;;;16.61;100.00;98951.38;5072079;28;20028;-85
2023/07/30 02:47:37;;;;;;;3.95;3.10;;;;;;;16.54;100.00;98945.78;5071735;28;20412;-85
2023/07/30 02:50:04;;;;;;;3.60;3.25;;;;;;;16.64;100.00;98969.50;5072236;28;20024;-86
2023/07/30 02:52:29;;;;;;;3.80;3.30;;;;;;;16.71;100.00;98986.44;5071934;28;20102;-85
2023/07/30 02:54:54;;;;;;;3.30;2.95;;;;;;;16.64;100.00;98974.75;5071705;28;20516;-85
2023/07/30 02:57:20;;;;;;;4.25;3.30;;;;;;;16.69;100.00;98993.66;5071929;28;20024;-85
2023/07/30 02:59:45;;;;;;;4.28;2.92;;;;;;;16.47;100.00;98963.00;5071958;28;20078;-85
2023/07/30 03:02:10;;;;;;;4.47;3.00;;;;;;;16.40;100.00;98960.06;5071640;28;20028;-85
2023/07/30 03:04:36;;;;;;;6.80;3.53;;;;;;;16.45;100.00;98980.72;5070679;28;20032;-85
2023/07/30 03:07:01;;;;;;;3.83;3.13;;;;;;;16.43;100.00;98977.34;5070325;28;20506;-85
2023/07/30 03:09:27;;;;;;;3.75;3.33;;;;;;;16.44;100.00;98984.31;5071923;28;20059;-85
2023/07/30 03:11:53;;;;;;;6.70;3.60;;;;;;;16.53;100.00;99003.75;5071596;28;20056;-85
2023/07/30 03:14:21;;;;;;;3.63;3.30;;;;;;;16.27;100.00;98964.66;5070474;28;20032;-85
2023/07/30 03:16:47;;;;;;;4.75;3.47;;;;;;;16.41;100.00;98995.06;5071788;28;20025;-85
2023/07/30 03:19:13;;;;;;;3.58;3.28;;;;;;;16.38;100.00;98998.75;5071642;28;20024;-85
2023/07/30 03:21:38;;;;;;;4.78;3.63;;;;;;;16.42;100.00;99005.44;5069998;28;20039;-85
2023/07/30 03:24:04;;;;;;;4.10;3.50;;;;;;;16.25;100.00;98968.34;5071766;28;20029;-85
2023/07/30 03:26:29;;;;;;;4.35;3.92;;;;;;;16.31;100.00;98975.75;5071985;28;20035;-85
2023/07/30 03:28:55;;;;;;;5.88;4.90;;;;;;;16.34;100.00;98989.44;5071408;28;20420;-85
2023/07/30 03:31:20;;;;;;;5.53;4.22;;;;;;;16.31;100.00;98976.59;5071558;28;20498;-85
2023/07/30 03:33:45;;;;;;;5.13;3.80;;;;;;;16.25;100.00;98953.41;5071246;28;20552;-85
2023/07/30 03:36:13;;;;;;;6.72;4.43;;;;;;;16.42;100.00;98983.56;5071464;28;20056;-85
2023/07/30 03:38:39;;;;;;;4.13;3.72;;;;;;;16.48;100.00;98993.59;5071471;28;20050;-85
2023/07/30 03:41:05;;;;;;;5.57;4.22;;;;;;;16.37;100.00;98969.97;5071563;28;20033;-85
2023/07/30 03:43:31;;;;;;;4.63;4.22;;;;;;;16.52;100.00;98978.41;5071651;28;20052;-85
2023/07/30 03:45:56;;;;;;;6.25;4.13;;;;;;;16.51;100.00;98971.47;5071177;28;20021;-85
2023/07/30 03:48:21;;;;;;;6.10;3.53;;;;;;;16.55;100.00;98970.25;5071321;28;20056;-85
2023/07/30 03:50:47;;;;;;;4.75;3.90;;;;;;;16.70;100.00;98997.94;5071129;28;20127;-85
2023/07/30 03:53:12;;;;;;;7.05;4.55;;;;;;;16.66;100.00;98983.38;5071753;28;20052;-85
2023/07/30 03:55:37;;;;;;;4.57;3.90;;;;;;;16.63;100.00;98973.09;5071421;28;20025;-85
2023/07/30 03:58:03;;;;;;;5.68;4.13;;;;;;;16.64;100.00;98964.25;5071039;28;20032;-85
2023/07/30 04:00:29;;;;;;;6.50;3.78;;;;;;;16.68;100.00;98968.28;5071303;28;20027;-85
2023/07/30 04:02:54;;;;;;;4.45;3.42;;;;;;;16.77;100.00;98967.59;5071046;28;20024;-85
2023/07/30 04:05:20;;;;;;;4.90;3.42;;;;;;;16.91;100.00;98984.84;5071189;28;20111;-85
2023/07/30 04:07:45;;;;;;;3.95;3.55;;;;;;;17.04;100.00;98998.63;5071149;28;20059;-85
2023/07/30 04:10:10;;;;;;;5.75;3.92;;;;;;;16.96;100.00;98972.13;5071612;28;20143;-85
2023/07/30 04:12:36;;;;;;;5.20;3.45;;;;;;;17.31;100.00;98997.25;5070028;28;20064;-85
2023/07/30 04:15:01;;;;;;;5.78;3.08;;;;;;;17.50;100.00;98970.22;5074536;28;20539;-85
2023/07/30 04:17:26;;;;;;;5.72;3.90;;;;;;;18.15;100.00;98982.09;5074663;28;20415;-86
2023/07/30 04:19:51;;;;;;;3.90;3.60;;;;;;;18.57;100.00;98985.31;5074575;28;20069;-85
2023/07/30 04:22:17;;;;;;;5.60;3.50;;;;;;;18.97;100.00;98996.75;5074956;28;20024;-85
2023/07/30 04:24:42;;;;;;;5.32;3.72;;;;;;;19.17;100.00;98988.66;5074470;28;20423;-85
2023/07/30 04:27:07;;;;;;;3.83;3.28;;;;;;;19.58;100.00;99006.88;5074641;28;20464;-86
2023/07/30 04:29:33;;;;;;;7.03;3.75;;;;;;;20.12;100.00;99008.75;5074570;28;20455;-86
2023/07/30 04:31:58;;;;;;;4.53;3.85;;;;;;;20.98;100.00;98991.56;5074183;28;20036;-86
2023/07/30 04:34:23;;;;;;;3.53;3.22;;;;;;;22.32;96.48;98995.44;5074233;28;20025;-86
2023/07/30 04:36:49;;;;;;;6.75;3.22;;;;;;;23.49;90.05;99000.44;5074295;28;20392;-86
2023/07/30 04:39:14;;;;;;;9.07;3.47;;;;;;;24.05;86.26;98979.16;5074357;28;20047;-86
2023/07/30 04:41:39;;;;;;;4.00;3.40;;;;;;;24.20;85.61;99009.34;5074417;28;20025;-86
2023/07/30 04:44:05;;;;;;;3.60;3.13;;;;;;;23.64;87.29;99008.56;5073903;28;20041;-86
2023/07/30 04:46:30;;;;;;;7.13;3.10;;;;;;;23.07;89.44;98988.22;5074168;28;20017;-86
2023/07/30 04:48:56;;;;;;;7.90;3.47;;;;;;;22.88;91.00;99005.31;5073807;28;20421;-86
2023/07/30 04:51:21;;;;;;;5.32;2.85;;;;;;;22.98;91.32;99009.66;5074049;28;20029;-86
2023/07/30 04:53:46;;;;;;;9.90;3.67;;;;;;;23.27;89.43;98994.03;5073942;28;20044;-86
2023/07/30 04:56:12;;;;;;;5.18;2.92;;;;;;;24.24;86.22;98985.88;5073989;28;20474;-86
2023/07/30 04:58:37;;;;;;;5.50;3.13;;;;;;;25.61;80.37;98991.09;5074057;28;20025;-86
2023/07/30 05:01:02;;;;;;;10.90;3.70;;;;;;;26.74;76.78;99005.81;5073687;28;20020;-86
2023/07/30 05:03:28;;;;;;;7.07;2.80;;;;;;;26.94;75.60;98989.97;5073688;28;20388;-86
2023/07/30 05:05:53;;;;;;;4.97;2.80;;;;;;;26.49;76.25;99000.00;5073693;28;20460;-87
2023/07/30 05:08:19;;;;;;;4.25;2.90;;;;;;;25.85;77.78;98995.34;5073869;28;20025;-86
2023/07/30 05:10:44;;;;;;;4.22;2.70;;;;;;;25.33;79.45;98998.91;5073799;28;20028;-86
2023/07/30 05:13:09;;;;;;;5.72;3.05;;;;;;;25.06;80.28;98994.13;5073597;28;20036;-86
2023/07/30 05:15:35;;;;;;;3.75;2.63;;;;;;;25.37;79.92;99008.19;5073651;28;20028;-87
2023/07/30 05:18:00;;;;;;;5.13;3.20;;;;;;;26.20;77.87;99013.41;5073171;28;20524;-87
2023/07/30 05:20:25;;;;;;;6.18;2.92;;;;;;;27.51;73.44;98998.81;5073668;28;20016;-87
2023/07/30 05:22:50;;;;;;;5.05;2.72;;;;;;;28.65;70.11;99007.16;5073246;28;20024;-87
2023/07/30 05:25:16;;;;;;;4.05;2.75;;;;;;;28.96;69.38;99005.78;5072970;28;20024;-87
2023/07/30 05:27:41;;;;;;;4.13;2.92;;;;;;;28.44;70.08;99010.81;5073423;28;20039;-86
2023/07/30 05:30:07;;;;;;;6.18;3.15;;;;;;;27.63;72.29;99007.97;5073420;28;20116;-87
2023/07/30 05:32:32;;;;;;;8.25;2.83;;;;;;;27.04;74.46;99001.13;5073209;28;20143;-87
2023/07/30 05:34:58;;;;;;;5.97;3.50;;;;;;;26.48;75.55;98992.19;5072856;28;20020;-86
2023/07/30 05:37:23;;;;;;;5.97;2.67;;;;;;;26.32;76.15;99004.72;5071994;28;20025;-86
2023/07/30 05:39:49;;;;;;;8.02;3.20;;;;;;;26.31;77.20;99015.59;5072958;28;20036;-87
2023/07/30 05:42:14;;;;;;;4.07;2.80;;;;;;;26.37;76.72;98983.63;5072917;28;20108;-87
2023/07/30 05:44:39;;;;;;;4.63;2.47;;;;;;;26.48;76.19;99009.06;5072876;28;20028;-87
2023/07/30 05:47:05;;;;;;;7.18;2.80;;;;;;;26.21;76.84;98989.22;5072681;28;20025;-86
2023/07/30 05:49:30;;;;;;;5.20;2.97;;;;;;;26.10;77.49;99003.03;5073670;28;20376;-88
2023/07/30 05:51:55;;;;;;;5.47;2.95;;;;;;;25.97;77.81;99003.72;5071404;28;20392;-88
2023/07/30 05:54:21;;;;;;;3.90;3.03;;;;;;;25.88;77.66;99002.16;5071625;28;20078;-88
2023/07/30 05:56:46;;;;;;;4.13;3.30;;;;;;;25.81;78.67;99001.25;5072744;28;20052;-88
2023/07/30 05:59:11;;;;;;;3.42;2.80;;;;;;;25.87;78.73;99017.34;5072406;28;20082;-88
2023/07/30 06:01:37;;;;;;;6.80;3.10;;;;;;;25.87;78.27;99014.69;5072705;28;20397;-88
2023/07/30 06:04:02;;;;;;;3.67;2.85;;;;;;;26.06;78.66;99026.59;5072252;28;20103;-88
2023/07/30 06:06:29;;;;;;;5.32;3.05;;;;;;;26.00;78.78;99008.69;5071464;28;20064;-89
2023/07/30 06:08:55;;;;;;;7.47;3.03;;;;;;;26.18;77.55;99026.97;5072321;28;20357;-88
2023/07/30 06:11:21;;;;;;;5.07;2.97;;;;;;;26.22;78.01;99030.91;5072561;28;20071;-88
2023/07/30 06:13:46;;;;;;;2.85;2.65;;;;;;;26.34;77.74;99013.41;5072458;28;20411;-88
2023/07/30 06:16:14;;;;;;;3.85;2.47;;;;;;;26.48;77.24;99000.22;5072477;28;20032;-89
2023/07/30 06:18:39;;;;;;;5.13;2.67;;;;;;;26.53;76.00;98993.28;5070989;28;20497;-88
2023/07/30 06:21:04;;;;;;;2.70;2.50;;;;;;;26.82;75.94;99024.38;5072090;28;20025;-87
2023/07/30 06:23:30;;;;;;;4.18;2.90;;;;;;;26.91;75.38;99014.41;5072181;28;20077;-89
2023/07/30 06:25:55;;;;;;;7.32;3.35;;;;;;;27.05;74.97;99023.34;5071624;28;20116;-89
2023/07/30 06:28:20;;;;;;;3.22;2.70;;;;;;;27.11;74.66;99026.13;5072600;28;20036;-88
2023/07/30 06:30:46;;;;;;;3.63;3.15;;;;;;;27.09;74.71;99027.28;5070855;28;20032;-88
2023/07/30 06:33:11;;;;;;;3.50;2.60;;;;;;;27.19;73.48;99035.84;5070618;28;20151;-89
2023/07/30 06:35:37;;;;;;;4.38;3.08;;;;;;;27.14;73.14;99030.25;5070761;28;20488;-89
2023/07/30 06:38:02;;;;;;;5.85;3.20;;;;;;;27.25;74.10;99036.91;5071617;28;20051;-88
2023/07/30 06:40:27;;;;;;;4.35;2.88;;;;;;;27.39;72.41;99032.47;5072315;28;20107;-88
2023/07/30 06:42:53;;;;;;;4.25;3.17;;;;;;;27.61;72.25;99053.66;5072320;28;20500;-88
2023/07/30 06:45:18;;;;;;;2.80;2.60;;;;;;;27.79;72.25;99042.47;5073058;28;20035;-88
2023/07/30 06:47:44;;;;;;;3.05;2.55;;;;;;;27.98;71.25;99024.88;5071851;28;20086;-88
2023/07/30 06:50:09;;;;;;;3.10;2.50;;;;;;;28.58;69.89;99049.22;5071984;28;20095;-88
2023/07/30 06:52:35;;;;;;;2.95;2.75;;;;;;;28.88;68.29;99033.59;5072126;28;20029;-88
2023/07/30 06:55:02;;;;;;;3.47;2.50;;;;;;;29.17;68.52;99027.03;5071853;28;20464;-88
2023/07/30 06:57:28;;;;;;;3.33;3.13;;;;;;;29.66;67.47;99054.47;5070449;28;20051;-88
2023/07/30 06:59:53;;;;;;;3.45;2.70;;;;;;;29.65;66.27;99031.34;5071626;28;20480;-88
2023/07/30 07:02:18;;;;;;;4.55;3.30;;;;;;;30.02;65.52;99051.28;5071720;28;20036;-88
2023/07/30 07:04:44;;;;;;;3.20;2.90;;;;;;;30.90;64.56;99031.88;5072077;28;20427;-88
2023/07/30 07:07:09;;;;;;;2.70;2.50;;;;;;;32.00;62.79;99049.09;5071709;28;20107;-88
2023/07/30 07:09:35;;;;;;;3.53;2.90;;;;;;;32.36;61.13;99055.47;5071858;28;20107;-88
2023/07/30 07:12:00;;;;;;;3.05;2.85;;;;;;;32.19;61.19;99040.97;5071616;28;20107;-88
2023/07/30 07:14:26;;;;;;;3.70;2.53;;;;;;;32.21;61.21;99049.69;5071741;28;20028;-88
2023/07/30 07:16:54;;;;;;;5.50;3.00;;;;;;;32.51;60.86;99065.91;5070381;28;20440;-88
2023/07/30 07:19:20;;;;;;;2.83;2.40;;;;;;;32.89;59.80;99043.97;5071749;28;20047;-88
2023/07/30 07:21:45;;;;;;;3.22;2.53;;;;;;;33.60;58.22;99057.63;5071726;28;20020;-88
2023/07/30 07:24:10;;;;;;;4.40;2.85;;;;;;;34.19;56.87;99055.66;5071785;28;20032;-89
2023/07/30 07:26:36;;;;;;;2.83;2.22;;;;;;;34.96;56.34;99066.84;5071666;28;20024;-88
2023/07/30 07:29:01;;;;;;;3.33;2.67;;;;;;;35.67;54.64;99045.56;5070041;28;20032;-88
2023/07/30 07:31:27;;;;;;;2.63;2.42;;;;;;;37.03;52.80;99051.22;5070172;28;20119;-88
2023/07/30 07:33:52;;;;;;;2.63;2.42;;;;;;;38.42;49.99;99049.06;5071127;28;20020;-88
2023/07/30 07:36:18;;;;;;;2.30;2.20;;;;;;;39.36;48.37;99061.44;5071233;28;20468;-89
2023/07/30 07:38:43;;;;;;;2.35;2.20;;;;;;;40.21;47.79;99055.22;5071157;28;20017;-88
2023/07/30 07:41:15;;;;;;;2.53;2.30;;;;;;;40.90;46.29;99059.72;5071344;28;20036;-88
2023/07/30 07:43:40;;;;;;;2.50;2.30;;;;;;;41.48;45.54;99041.78;5069072;28;20400;-88
2023/07/30 07:46:12;;;;;;;3.38;2.50;;;;;;;41.92;44.87;99038.81;5071384;28;20054;-89
2023/07/30 07:48:38;;;;;;;2.47;2.28;;;;;;;42.08;44.63;99047.66;5074804;28;20103;-89
2023/07/30 07:51:03;;;;;;;3.15;2.40;;;;;;;42.20;43.89;99023.41;5074902;28;20107;-88
2023/07/30 07:53:29;;;;;;;2.53;2.30;;;;;;;42.22;43.58;99039.53;5075106;28;20032;-89
2023/07/30 07:55:54;;;;;;;2.70;2.50;;;;;;;42.26;43.92;99049.63;5073741;28;20031;-89
2023/07/30 07:58:19;;;;;;;2.72;2.50;;;;;;;42.03;44.10;99050.47;5073578;28;20020;-88
2023/07/30 08:00:44;;;;;;;4.72;2.38;;;;;;;42.02;44.21;99049.66;5075165;28;20036;-88
2023/07/30 08:03:10;;;;;;;3.92;2.80;;;;;;;41.84;44.43;99036.72;5074936;28;20073;-88
2023/07/30 08:05:36;;;;;;;2.97;2.50;;;;;;;41.88;44.64;99035.84;5075061;28;20070;-88
2023/07/30 08:08:01;;;;;;;2.70;2.50;;;;;;;41.96;44.90;99048.06;5073516;28;20034;-89
2023/07/30 08:10:26;;;;;;;2.60;2.40;;;;;;;41.83;44.56;99037.84;5074845;28;20029;-87
2023/07/30 08:12:51;;;;;;;3.20;2.65;;;;;;;41.92;44.24;99048.94;5074813;28;20509;-86
2023/07/30 08:15:17;;;;;;;2.20;2.10;;;;;;;41.77;44.46;99050.75;5074444;28;20055;-86
2023/07/30 08:17:42;;;;;;;2.20;2.00;;;;;;;41.50;43.70;99042.28;5074725;28;20052;-87
2023/07/30 08:20:08;;;;;;;2.05;1.95;;;;;;;41.44;43.66;99052.47;5074568;28;20482;-87
2023/07/30 08:22:33;;;;;;;2.35;2.25;;;;;;;41.24;43.88;99044.44;5086164;28;20077;-86
2023/07/30 08:24:58;;;;;;;2.17;2.08;;;;;;;41.17;44.06;99049.41;5078114;28;20108;-86
2023/07/30 08:27:24;;;;;;;2.35;2.03;;;;;;;41.00;43.00;99042.44;5074316;28;20024;-87
2023/07/30 08:29:49;;;;;;;2.50;2.30;;;;;;;40.64;43.18;99050.09;5074161;28;20024;-87
2023/07/30 08:32:14;;;;;;;2.10;1.90;;;;;;;39.78;44.02;99048.53;5073987;28;20021;-86
2023/07/30 08:34:40;;;;;;;1.88;1.77;;;;;;;38.30;43.83;99043.00;5074307;28;20353;-87
2023/07/30 08:37:05;;;;;;;1.80;1.70;;;;;;;36.89;46.49;99046.19;5073670;28;20503;-87
2023/07/30 08:39:30;;;;;;;4.57;2.17;;;;;;;35.56;48.56;99035.63;5073949;28;20024;-87
2023/07/30 08:41:56;;;;;;;2.92;2.13;;;;;;;34.60;50.86;99035.66;5074133;28;20028;-87
2023/07/30 08:44:21;;;;;;;2.20;2.05;;;;;;;33.88;51.70;99043.34;5072326;28;20060;-87
2023/07/30 08:46:46;;;;;;;3.55;2.50;;;;;;;33.21;52.90;99041.03;5074081;28;20024;-87
2023/07/30 08:49:12;;;;;;;1.98;1.88;;;;;;;32.57;54.19;99015.63;5070402;28;20029;-87
2023/07/30 08:51:40;;;;;;;3.67;2.20;;;;;;;32.24;55.11;99028.50;5074000;28;20024;-87
2023/07/30 08:54:06;;;;;;;2.58;2.20;;;;;;;31.98;55.31;99034.19;5073652;28;20029;-89
2023/07/30 08:56:31;;;;;;;2.10;2.00;;;;;;;31.66;55.93;99017.34;5072233;28;20039;-88
2023/07/30 08:58:59;;;;;;;2.33;2.10;;;;;;;31.49;55.30;99017.94;5072516;28;20376;-89
2023/07/30 09:01:31;;;;;;;2.85;1.75;;;;;;;31.12;55.48;98994.66;5074122;28;20024;-89
2023/07/30 09:04:00;;;;;;;3.70;2.10;;;;;;;31.31;56.08;99036.75;5073984;28;20096;-89
2023/07/30 09:06:25;;;;;;;2.10;1.90;;;;;;;31.00;56.25;98989.16;5073544;28;20024;-89
2023/07/30 09:08:50;;;;;;;3.05;2.05;;;;;;;31.13;56.07;99028.56;5073865;28;20040;-89
2023/07/30 09:11:15;;;;;;;2.85;1.70;;;;;;;30.97;56.68;99014.66;5072990;28;20036;-89
2023/07/30 09:13:41;;;;;;;2.25;2.05;;;;;;;30.98;56.99;99021.66;5073474;28;20028;-89
2023/07/30 09:16:11;;;;;;;2.55;1.95;;;;;;;30.85;56.10;99015.56;5072070;28;20115;-89
2023/07/30 09:18:46;;;;;;;2.38;2.17;;;;;;;30.85;56.49;99031.69;5073211;28;20476;-88
2023/07/30 09:21:12;;;;;;;2.40;2.20;;;;;;;30.66;57.09;99009.25;5072458;28;20374;-88
2023/07/30 09:23:43;;;;;;;2.25;2.05;;;;;;;30.57;57.58;99012.19;5072055;28;20028;-88
2023/07/30 09:26:08;;;;;;;2.22;2.10;;;;;;;30.61;57.92;99020.66;5071407;28;20028;-89
2023/07/30 09:28:34;;;;;;;2.53;2.33;;;;;;;30.63;56.79;99018.56;5071524;28;20024;-88
2023/07/30 09:31:07;;;;;;;2.47;2.20;;;;;;;30.66;57.62;99023.50;5072319;28;20033;-89
2023/07/30 09:33:34;;;;;;;2.80;2.45;;;;;;;30.46;58.42;98990.53;5073011;28;20024;-88
2023/07/30 09:36:03;;;;;;;2.80;2.50;;;;;;;30.55;57.67;99035.78;5071205;28;20032;-89
2023/07/30 09:38:33;;;;;;;2.50;2.30;;;;;;;30.35;58.88;99028.88;5071407;28;20052;-88
2023/07/30 09:41:02;;;;;;;2.17;2.08;;;;;;;30.11;59.59;99000.84;5071249;28;20029;-88
2023/07/30 09:43:30;;;;;;;2.92;2.30;;;;;;;30.10;60.02;99029.56;5072714;28;20152;-88
2023/07/30 09:46:04;;;;;;;2.28;2.10;;;;;;;29.86;60.59;99009.59;5072747;28;20505;-88
2023/07/30 09:48:32;;;;;;;2.33;2.10;;;;;;;29.73;60.82;99004.28;5071597;28;20060;-88
2023/07/30 09:50:59;;;;;;;2.35;2.15;;;;;;;29.73;60.46;99018.53;5072248;28;20036;-88
2023/07/30 09:53:25;;;;;;;2.17;1.98;;;;;;;29.74;61.21;99024.72;5072590;28;20032;-88
2023/07/30 09:55:51;;;;;;;2.42;2.22;;;;;;;29.51;61.49;98985.72;5072837;28;20025;-88
2023/07/30 09:58:17;;;;;;;2.83;2.63;;;;;;;29.49;61.52;98985.09;5089928;28;20042;-88
2023/07/30 10:00:45;;;;;;;3.35;2.40;;;;;;;29.66;62.18;99016.88;5089467;28;20093;-88
2023/07/30 10:03:14;;;;;;;2.97;2.40;;;;;;;29.76;61.80;99020.78;5089771;28;20046;-89
2023/07/30 10:05:43;;;;;;;2.65;2.45;;;;;;;29.85;61.94;99020.56;5089880;28;20024;-88
2023/07/30 10:08:12;;;;;;;3.10;2.25;;;;;;;30.03;61.74;99018.00;5090069;28;20110;-88
2023/07/30 10:10:38;;;;;;;2.67;2.28;;;;;;;30.12;61.26;98995.25;5089809;28;20039;-89
2023/07/30 10:13:07;;;;;;;3.17;2.60;;;;;;;30.20;60.72;98983.47;5089682;28;20115;-88
2023/07/30 10:15:37;;;;;;;3.10;2.35;;;;;;;30.41;61.22;98996.56;5089616;28;20028;-88
2023/07/30 10:18:03;;;;;;;3.05;2.33;;;;;;;30.40;60.27;98976.13;5089461;28;20028;-88
2023/07/30 10:20:29;;;;;;;3.15;2.35;;;;;;;30.48;58.77;98989.31;5089735;28;20028;-88
2023/07/30 10:22:56;;;;;;;2.50;2.30;;;;;;;30.39;58.60;98995.97;5089354;28;20047;-88
2023/07/30 10:25:27;;;;;;;3.28;2.65;;;;;;;30.32;59.55;99009.44;5089410;28;20083;-88
2023/07/30 10:27:52;;;;;;;;;;;;;;;30.22;59.42;99013.63;5090333;28;20412;-88
2023/07/30 10:30:20;;;;;;;2.40;2.20;;;;;;;30.15;61.02;99007.47;5089233;28;19915;-88
2023/07/30 10:33:08;;;;;;;2.60;2.40;;;;;;;30.22;60.33;99005.59;5090706;28;20020;-89
2023/07/30 10:35:40;;;;;;;2.88;2.22;;;;;;;30.21;60.83;99001.22;5081658;28;20039;-89
2023/07/30 10:38:17;;;;;;;2.65;2.45;;;;;;;30.20;60.30;99000.41;5071604;28;20048;-88
2023/07/30 10:40:59;;;;;;;2.30;2.10;;;;;;;30.16;59.99;99009.09;5071676;28;20032;-89
2023/07/30 10:43:31;;;;;;;2.75;2.55;;;;;;;30.13;60.81;98998.75;5071535;28;20408;-89
2023/07/30 10:45:56;;;;;;;2.15;2.05;;;;;;;30.18;60.37;99001.69;5071717;28;20442;-89
2023/07/30 10:48:54;;;;;;;2.38;2.17;;;;;;;30.13;61.12;99004.13;5071845;28;20028;-89
2023/07/30 10:51:20;;;;;;;2.47;2.28;;;;;;;30.12;61.17;98989.88;5031966;28;20040;-89
2023/07/30 10:53:47;;;;;;;3.10;2.42;;;;;;;30.08;60.29;98986.78;5048993;28;20124;-89
2023/07/30 10:56:13;;;;;;;2.47;2.28;;;;;;;30.12;60.47;98981.00;5028412;28;20065;-89
2023/07/30 10:58:39;;;;;;;2.30;2.20;;;;;;;30.06;58.83;98969.25;5006725;28;20034;-89
2023/07/30 11:01:06;;;;;;;2.65;2.45;;;;;;;30.05;59.64;98978.34;5012289;28;20272;-90
2023/07/30 11:03:32;;;;;;;3.25;2.30;;;;;;;29.88;58.22;98961.91;5012671;28;20258;-89
2023/07/30 11:05:58;;;;;;;1.90;1.80;;;;;;;30.11;58.13;98964.06;5012557;28;20025;-89
2023/07/30 11:08:40;;;;;;;2.58;2.30;;;;;;;30.25;58.39;98967.53;5029214;28;20695;-89
2023/07/30 11:11:07;;;;;;;2.33;2.05;;;;;;;30.40;58.22;98978.00;5012738;28;20033;-90
2023/07/30 11:13:50;;;;;;;2.25;2.15;;;;;;;30.40;57.74;98960.00;5012814;28;20038;-90
2023/07/30 11:16:16;;;;;;;2.10;2.00;;;;;;;30.53;56.83;98978.72;5011947;28;20493;-89
2023/07/30 11:18:43;;;;;;;2.28;2.10;;;;;;;30.56;57.63;98975.59;5029273;28;20029;-89
2023/07/30 11:21:10;;;;;;;3.67;2.08;;;;;;;30.52;57.35;98962.81;5029274;28;20128;-90
2023/07/30 11:23:37;;;;;;;2.60;2.40;;;;;;;30.32;57.64;98933.41;5032842;28;20042;-89
2023/07/30 11:26:05;;;;;;;2.85;2.65;;;;;;;30.48;57.85;98975.88;5022955;28;20036;-89